Strona główna
METAR-TAF:

METAR-TAF

Lotnisko :

Port lotniczy Valdivia-Pichoy

Valdivia, Chile

Szerokość geograficzna: 39-37S, Długość geograficzna: 073-05W, wysokość: 19 m

Aktualna obserwacja pogody

Raport powstał 1 godzina i 1 minut temu, godzina 22:00 UTC
Wiatr 12 kt od południe, zmienny między południowy wschód i południowo-południowy zachód
Temperatura 26°C
Wilgotność 45%
Ciśnienie 1012 hPa
Widzialność 10 km lub więcej
Brak chmur poniżej 1500 m i brak chmur cumulonimbus

METAR: SCVD 172200Z AUTO 17012KT 140V200 CAVOK 26/13 Q1012

czas: 20:01 (23:01 UTC)


TAF: brakujący

Obserwacja i prognoza pogody dla ponad 4000 lotnisk (raport METAR i TAF).

Dostępne stacje oznaczono żółtymi i czerwonymi punktami na mapie.

Najedź kursorem aby zobaczyć nazwę stacji.

Kliknij aby zobaczyć obserwacje i prognozy pogody.

Aby zmienić mapę: kliknij na zielony przycisk z czarnym krzyżykiem, aby powiększyć; na zielony przycisk z myślnikiem, aby pomniejszyć; na zielone strzałki, aby przejść do map sąsiednich.


METAR-TAF: